createdAt,value
2019-01-27T00:00:56.174Z,107.77
2019-01-27T00:04:01.576Z,106.04
2019-01-27T00:07:07.030Z,105.72
2019-01-27T00:10:12.492Z,105.23
2019-01-27T00:13:17.833Z,107.01
2019-01-27T00:16:23.153Z,106.98
2019-01-27T00:19:28.545Z,104.49
2019-01-27T00:22:33.828Z,105.63
2019-01-27T00:25:42.144Z,104.25
2019-01-27T00:28:47.365Z,103.02
2019-01-27T00:31:52.636Z,102.51
2019-01-27T00:34:58.013Z,101.55
2019-01-27T00:38:03.266Z,103.12
2019-01-27T00:41:08.522Z,102.52
2019-01-27T00:44:13.762Z,102.78
2019-01-27T00:47:19.004Z,104.10
2019-01-27T00:50:24.327Z,104.09
2019-01-27T00:53:29.703Z,103.93
2019-01-27T00:56:34.962Z,102.91
2019-01-27T00:59:40.200Z,102.48
2019-01-27T01:02:45.508Z,102.25
2019-01-27T01:05:50.783Z,102.99
2019-01-27T01:08:56.060Z,104.67
2019-01-27T01:12:01.437Z,104.03
2019-01-27T01:15:09.105Z,103.90
2019-01-27T01:18:14.580Z,105.02
2019-01-27T01:21:20.030Z,103.33
2019-01-27T01:24:25.413Z,100.59
2019-01-27T01:27:31.781Z,100.51
2019-01-27T01:30:37.127Z,101.30
2019-01-27T01:33:42.385Z,102.38
2019-01-27T01:36:47.660Z,102.53
2019-01-27T01:39:52.962Z,103.29
2019-01-27T01:42:58.237Z,102.01
2019-01-27T01:46:03.540Z,103.75
2019-01-27T01:49:08.860Z,102.53
2019-01-27T01:52:14.211Z,101.46
2019-01-27T01:55:19.684Z,102.80
2019-01-27T01:58:24.965Z,104.30
2019-01-27T02:01:30.177Z,103.02
2019-01-27T02:04:35.484Z,101.91
2019-01-27T02:07:40.792Z,103.09
2019-01-27T02:10:46.063Z,103.22
2019-01-27T02:13:51.412Z,102.88
2019-01-27T02:16:56.721Z,102.27
2019-01-27T02:20:02.040Z,103.20
2019-01-27T02:23:09.560Z,101.19
2019-01-27T02:26:14.845Z,101.67
2019-01-27T02:29:20.122Z,101.71
2019-01-27T02:32:25.398Z,102.01
2019-01-27T02:35:30.857Z,101.01
2019-01-27T02:38:36.132Z,100.79
2019-01-27T02:41:41.422Z,100.37
2019-01-27T02:44:46.645Z,99.69
2019-01-27T02:47:51.935Z,99.98
2019-01-27T02:50:57.152Z,99.71
2019-01-27T02:54:02.396Z,100.71
2019-01-27T02:57:07.735Z,102.31
2019-01-27T03:00:13.469Z,102.48
2019-01-27T03:03:19.920Z,103.11
2019-01-27T03:06:47.107Z,103.78
2019-01-27T03:09:52.361Z,104.05
2019-01-27T03:12:57.656Z,104.68
2019-01-27T03:16:02.905Z,104.03
2019-01-27T03:19:08.241Z,104.11
2019-01-27T03:22:13.576Z,102.64
2019-01-27T03:25:21.235Z,101.63
2019-01-27T03:28:26.442Z,102.94
2019-01-27T03:31:31.737Z,102.76
2019-01-27T03:34:36.988Z,102.65
2019-01-27T03:37:42.234Z,102.75
2019-01-27T03:40:47.491Z,102.43
2019-01-27T03:43:52.718Z,101.49
2019-01-27T03:46:57.992Z,102.31
2019-01-27T03:50:03.219Z,101.91
2019-01-27T03:53:08.690Z,101.27
2019-01-27T03:56:13.971Z,101.65
2019-01-27T03:59:20.179Z,102.49
2019-01-27T04:02:25.520Z,101.93
2019-01-27T04:05:30.796Z,102.16
2019-01-27T04:08:36.069Z,103.52
2019-01-27T04:11:41.401Z,104.03
2019-01-27T04:14:46.681Z,104.32
2019-01-27T04:17:52.010Z,104.02
2019-01-27T04:20:57.296Z,104.28
2019-01-27T04:24:02.570Z,104.61
2019-01-27T04:27:07.954Z,105.30
2019-01-27T04:30:16.675Z,104.87
2019-01-27T04:33:21.931Z,104.60
2019-01-27T04:36:27.212Z,104.22
2019-01-27T04:39:32.530Z,103.78
2019-01-27T04:42:37.756Z,104.02
2019-01-27T04:45:42.981Z,104.23
2019-01-27T04:48:49.150Z,104.10
2019-01-27T04:51:54.417Z,104.94
2019-01-27T04:55:00.385Z,105.04
2019-01-27T04:58:06.288Z,105.74
2019-01-27T05:01:11.590Z,105.16
2019-01-27T05:04:26.812Z,104.59
2019-01-27T05:07:32.019Z,104.94
2019-01-27T05:10:37.320Z,105.71
2019-01-27T05:13:42.645Z,105.32
2019-01-27T05:16:47.863Z,104.92
2019-01-27T05:19:53.100Z,105.37
2019-01-27T05:22:58.478Z,105.52
2019-01-27T05:26:03.782Z,105.08
2019-01-27T05:29:09.125Z,104.35
2019-01-27T05:32:14.418Z,104.03
2019-01-27T05:35:19.689Z,104.26
2019-01-27T05:38:24.967Z,103.65
2019-01-27T05:41:30.204Z,103.42
2019-01-27T05:44:35.484Z,102.72
2019-01-27T05:47:40.761Z,103.89
2019-01-27T05:50:46.085Z,104.42
2019-01-27T05:53:51.411Z,105.20
2019-01-27T05:56:56.870Z,103.79
2019-01-27T06:00:02.200Z,103.69
2019-01-27T06:03:07.409Z,102.91
2019-01-27T06:06:12.745Z,101.95
2019-01-27T06:09:17.945Z,101.62
2019-01-27T06:12:23.268Z,100.62
2019-01-27T06:15:28.845Z,101.14
2019-01-27T06:18:34.089Z,100.95
2019-01-27T06:21:42.111Z,101.20
2019-01-27T06:24:47.368Z,101.23
2019-01-27T06:27:52.597Z,101.08
2019-01-27T06:30:57.859Z,100.94
2019-01-27T06:34:09.340Z,100.13
2019-01-27T06:37:14.609Z,100.35
2019-01-27T06:40:19.862Z,99.50
2019-01-27T06:43:25.135Z,99.68
2019-01-27T06:46:30.423Z,100.66
2019-01-27T06:49:36.645Z,100.00
2019-01-27T06:52:41.920Z,100.56
2019-01-27T06:55:47.198Z,101.17
2019-01-27T06:59:20.291Z,101.12
2019-01-27T07:02:29.914Z,100.14
2019-01-27T07:05:54.129Z,100.01
2019-01-27T07:09:10.674Z,101.19
2019-01-27T07:12:40.885Z,99.21
2019-01-27T07:15:57.701Z,100.04
2019-01-27T07:19:11.665Z,101.35
2019-01-27T07:22:43.414Z,101.89
2019-01-27T07:26:05.780Z,100.92
2019-01-27T07:29:48.220Z,100.85
2019-01-27T07:33:12.401Z,101.11
2019-01-27T07:36:35.295Z,101.06
2019-01-27T07:39:54.726Z,100.59
2019-01-27T07:43:23.049Z,99.65
2019-01-27T07:46:59.368Z,99.35
2019-01-27T07:50:27.825Z,98.21
2019-01-27T07:53:43.631Z,97.86
2019-01-27T07:57:22.909Z,98.05
2019-01-27T08:00:33.615Z,98.34
2019-01-27T08:04:09.931Z,98.49
2019-01-27T08:07:24.088Z,97.73
2019-01-27T08:10:37.719Z,98.19
2019-01-27T08:14:00.446Z,98.13
2019-01-27T08:17:11.645Z,96.28
2019-01-27T08:20:38.931Z,96.28
2019-01-27T08:23:57.969Z,96.25
2019-01-27T08:27:22.219Z,96.38
2019-01-27T08:30:52.429Z,96.84
2019-01-27T08:34:10.170Z,96.05
2019-01-27T08:37:23.951Z,97.32
2019-01-27T08:41:01.149Z,95.95
2019-01-27T08:44:41.839Z,96.34
2019-01-27T08:47:47.203Z,95.76
2019-01-27T08:50:52.459Z,95.84
2019-01-27T08:53:57.695Z,95.40
2019-01-27T08:57:02.979Z,96.80
2019-01-27T09:00:12.394Z,94.59
2019-01-27T09:03:36.833Z,95.07
2019-01-27T09:07:02.435Z,95.71
2019-01-27T09:10:27.918Z,96.09
2019-01-27T09:14:00.905Z,96.17
2019-01-27T09:17:26.000Z,96.38
2019-01-27T09:20:43.685Z,96.83
2019-01-27T09:24:08.774Z,95.97
2019-01-27T09:27:23.853Z,96.57
2019-01-27T09:30:51.087Z,95.42
2019-01-27T09:34:13.625Z,95.08
2019-01-27T09:37:43.833Z,96.50
2019-01-27T09:40:57.514Z,94.55
2019-01-27T09:44:20.374Z,94.15
2019-01-27T09:47:53.625Z,94.29
2019-01-27T09:51:13.999Z,92.29
2019-01-27T09:54:47.338Z,94.32
2019-01-27T09:58:01.286Z,93.87
2019-01-27T10:01:29.131Z,94.27
2019-01-27T10:04:53.307Z,94.75
2019-01-27T10:08:17.559Z,94.54
2019-01-27T10:11:44.823Z,94.06
2019-01-27T10:15:08.990Z,93.96
2019-01-27T10:18:42.215Z,94.27
2019-01-27T10:21:55.144Z,93.83
2019-01-27T10:25:35.775Z,93.97
2019-01-27T10:29:05.915Z,93.19
2019-01-27T10:32:26.346Z,93.93
2019-01-27T10:35:59.770Z,93.61
2019-01-27T10:39:36.080Z,93.90
2019-01-27T10:43:02.745Z,92.55
2019-01-27T10:46:31.199Z,93.41
2019-01-27T10:49:44.526Z,93.57
2019-01-27T10:53:05.614Z,93.77
2019-01-27T10:56:32.619Z,90.68
2019-01-27T10:59:57.858Z,91.22
2019-01-27T11:03:13.691Z,90.04
2019-01-27T11:06:36.301Z,91.56
2019-01-27T11:10:02.810Z,90.77
2019-01-27T11:13:18.548Z,89.87
2019-01-27T11:16:45.923Z,90.39
2019-01-27T11:20:10.049Z,90.36
2019-01-27T11:23:34.199Z,90.44
2019-01-27T11:26:55.572Z,91.34
2019-01-27T11:30:09.333Z,91.84
2019-01-27T11:33:32.179Z,91.73
2019-01-27T11:36:55.780Z,90.42
2019-01-27T11:40:10.563Z,90.97
2019-01-27T11:43:49.818Z,90.47
2019-01-27T11:47:21.758Z,90.23
2019-01-27T11:50:31.209Z,90.20
2019-01-27T11:53:36.588Z,90.63
2019-01-27T11:56:42.035Z,89.29
2019-01-27T11:59:47.327Z,90.74
2019-01-27T12:02:52.718Z,90.54
2019-01-27T12:05:57.992Z,89.73
2019-01-27T12:09:04.245Z,89.27
2019-01-27T12:12:09.540Z,91.32
2019-01-27T12:15:18.461Z,92.38
2019-01-27T12:18:23.752Z,94.45
2019-01-27T12:21:29.094Z,95.80
2019-01-27T12:24:34.461Z,97.72
2019-01-27T12:27:39.808Z,97.27
2019-01-27T12:30:45.138Z,97.50
2019-01-27T12:33:50.494Z,96.78
2019-01-27T12:36:55.779Z,97.12
2019-01-27T12:40:01.159Z,97.21
2019-01-27T12:43:06.534Z,98.21
2019-01-27T12:46:11.912Z,97.88
2019-01-27T12:49:17.233Z,98.80
2019-01-27T12:52:22.568Z,99.31
2019-01-27T12:55:27.957Z,99.50
2019-01-27T12:58:33.232Z,99.92
2019-01-27T13:01:39.046Z,99.98
2019-01-27T13:04:44.379Z,99.48
2019-01-27T13:07:49.807Z,100.16
2019-01-27T13:10:55.207Z,100.56
2019-01-27T13:14:00.589Z,101.30
2019-01-27T13:17:07.570Z,101.91
2019-01-27T13:20:13.215Z,102.18
2019-01-27T13:23:18.557Z,102.88
2019-01-27T13:26:23.823Z,103.06
2019-01-27T13:29:29.127Z,103.07
2019-01-27T13:32:34.581Z,102.95
2019-01-27T13:35:39.827Z,102.86
2019-01-27T13:38:51.027Z,102.69
2019-01-27T13:41:52.164Z,102.39
2019-01-27T13:44:57.518Z,101.67
2019-01-27T13:48:02.851Z,102.94
2019-01-27T13:51:08.218Z,102.84
2019-01-27T13:54:13.580Z,102.98
2019-01-27T13:57:18.878Z,103.17
2019-01-27T14:00:26.744Z,102.65
2019-01-27T14:03:32.012Z,101.91
2019-01-27T14:06:37.303Z,102.58
2019-01-27T14:09:42.629Z,102.47
2019-01-27T14:12:47.997Z,102.33
2019-01-27T14:15:53.372Z,101.75
2019-01-27T14:18:58.693Z,101.42
2019-01-27T14:22:06.486Z,101.50
2019-01-27T14:25:13.216Z,100.81
2019-01-27T14:28:18.686Z,101.04
2019-01-27T14:31:24.072Z,101.19
2019-01-27T14:34:29.334Z,102.10
2019-01-27T14:37:34.653Z,102.09
2019-01-27T14:40:40.156Z,101.92
2019-01-27T14:43:45.522Z,101.82
2019-01-27T14:46:50.846Z,102.86
2019-01-27T14:49:56.116Z,103.57
2019-01-27T14:53:02.640Z,103.06
2019-01-27T14:56:08.018Z,103.52
2019-01-27T14:59:13.411Z,102.99
2019-01-27T15:02:18.815Z,103.97
2019-01-27T15:05:24.186Z,104.39
2019-01-27T15:08:29.547Z,104.26
2019-01-27T15:11:34.887Z,104.83
2019-01-27T15:14:40.267Z,104.82
2019-01-27T15:17:45.687Z,105.13
2019-01-27T15:20:54.188Z,105.12
2019-01-27T15:23:59.432Z,105.68
2019-01-27T15:27:06.016Z,105.82
2019-01-27T15:30:15.507Z,106.11
2019-01-27T15:33:20.828Z,105.94
2019-01-27T15:36:26.218Z,106.62
2019-01-27T15:39:31.587Z,107.10
2019-01-27T15:42:37.014Z,106.83
2019-01-27T15:45:42.366Z,106.90
2019-01-27T15:48:49.247Z,107.16
2019-01-27T15:51:54.589Z,107.06
2019-01-27T15:55:00.003Z,107.13
2019-01-27T15:58:05.432Z,107.05
2019-01-27T16:01:11.558Z,107.03
2019-01-27T16:04:17.873Z,106.64
2019-01-27T16:07:23.141Z,107.00
2019-01-27T16:10:28.759Z,106.93
2019-01-27T16:13:34.103Z,106.76
2019-01-27T16:16:39.365Z,107.31
2019-01-27T16:19:44.623Z,107.19
2019-01-27T16:23:04.653Z,107.34
2019-01-27T16:26:10.001Z,107.25
2019-01-27T16:29:17.051Z,107.20
2019-01-27T16:32:29.200Z,107.60
2019-01-27T16:35:34.555Z,107.41
2019-01-27T16:38:39.818Z,107.48
2019-01-27T16:41:45.155Z,107.68
2019-01-27T16:44:50.448Z,107.92
2019-01-27T16:47:55.767Z,108.13
2019-01-27T16:51:01.072Z,108.51
2019-01-27T16:54:06.425Z,108.60
2019-01-27T16:57:11.773Z,108.72
2019-01-27T17:00:20.280Z,108.63
2019-01-27T17:03:25.739Z,108.77
2019-01-27T17:09:59.222Z,109.10
2019-01-27T17:13:15.715Z,109.09
2019-01-27T17:16:21.056Z,109.35
2019-01-27T17:19:38.023Z,109.15
2019-01-27T17:22:55.246Z,109.08
2019-01-27T17:26:12.287Z,109.22
2019-01-27T17:29:29.707Z,109.44
2019-01-27T17:32:46.377Z,109.26
2019-01-27T17:35:51.830Z,109.56
2019-01-27T17:39:09.649Z,109.73
2019-01-27T17:42:18.340Z,109.69
2019-01-27T17:45:42.723Z,109.53
2019-01-27T17:48:59.377Z,109.37
2019-01-27T17:52:16.360Z,109.48
2019-01-27T17:55:40.700Z,109.99
2019-01-27T18:02:54.675Z,107.44
2019-01-27T18:06:23.466Z,107.04
2019-01-27T18:10:01.993Z,107.09
2019-01-27T18:13:42.146Z,107.07
2019-01-27T18:16:59.150Z,107.64
2019-01-27T18:20:16.087Z,107.19
2019-01-27T18:23:33.445Z,106.89
2019-01-27T18:26:52.017Z,105.88
2019-01-27T18:30:08.709Z,105.94
2019-01-27T18:33:25.539Z,105.86
2019-01-27T18:36:30.972Z,105.15
2019-01-27T18:39:55.366Z,105.21
2019-01-27T18:43:11.895Z,104.70
2019-01-27T18:46:28.793Z,105.50
2019-01-27T18:49:45.632Z,106.31
2019-01-27T18:57:09.801Z,105.20
2019-01-27T19:00:45.405Z,105.64
2019-01-27T19:04:24.328Z,106.19
2019-01-27T19:11:46.699Z,107.25
2019-01-27T19:15:23.892Z,107.66
2019-01-27T19:18:59.742Z,107.71
2019-01-27T19:22:35.249Z,107.78
2019-01-27T19:26:12.209Z,107.90
2019-01-27T19:33:32.302Z,108.70
2019-01-27T19:37:14.390Z,108.99
2019-01-27T19:43:52.012Z,109.40
2019-01-27T19:47:16.162Z,109.48
2019-01-27T19:50:55.214Z,109.60
2019-01-27T19:54:23.831Z,109.51
2019-01-27T19:57:49.091Z,109.96
2019-01-27T20:01:13.330Z,110.17
2019-01-27T20:04:37.508Z,110.24
2019-01-27T20:08:16.381Z,110.18
2019-01-27T20:15:23.461Z,110.62
2019-01-27T20:19:02.196Z,110.51
2019-01-27T20:22:39.271Z,110.50
2019-01-27T20:26:16.255Z,110.65
2019-01-27T20:29:58.269Z,110.67
2019-01-27T20:33:14.608Z,110.77
2019-01-27T20:36:39.616Z,110.53
2019-01-27T20:40:03.836Z,110.37
2019-01-27T20:43:39.630Z,110.47
2019-01-27T20:47:15.866Z,110.34
2019-01-27T20:54:29.910Z,110.28
2019-01-27T20:58:06.168Z,110.30
2019-01-27T21:01:49.851Z,109.98
2019-01-27T21:09:10.290Z,109.58
2019-01-27T21:12:34.429Z,109.13
2019-01-27T21:16:13.399Z,108.81
2019-01-27T21:19:38.382Z,108.41
2019-01-27T21:23:03.046Z,108.32
2019-01-27T21:26:08.355Z,108.50
2019-01-27T21:29:25.364Z,108.66
2019-01-27T21:32:42.720Z,108.52
2019-01-27T21:35:48.234Z,108.54
2019-01-27T21:39:12.666Z,108.56
2019-01-27T21:42:35.797Z,108.29
2019-01-27T21:45:53.023Z,107.88
2019-01-27T21:49:09.993Z,107.70
2019-01-27T21:52:27.042Z,107.45
2019-01-27T21:55:47.703Z,107.20
2019-01-27T21:58:53.966Z,106.87
2019-01-27T22:02:18.287Z,106.62
2019-01-27T22:05:35.200Z,106.59
2019-01-27T22:08:51.835Z,106.71
2019-01-27T22:15:37.963Z,106.35
2019-01-27T22:18:43.206Z,106.61
2019-01-27T22:21:59.737Z,106.58
2019-01-27T22:25:16.989Z,106.64
2019-01-27T22:28:35.679Z,106.06
2019-01-27T22:31:52.351Z,106.15
2019-01-27T22:35:13.649Z,105.88
2019-01-27T22:38:30.418Z,105.66
2019-01-27T22:41:46.776Z,104.96
2019-01-27T22:45:03.195Z,105.05
2019-01-27T22:48:23.483Z,104.62
2019-01-27T22:51:42.259Z,103.77
2019-01-27T22:54:58.704Z,104.13
2019-01-27T22:58:16.044Z,104.73
2019-01-27T23:01:33.183Z,104.23
2019-01-27T23:04:50.261Z,104.25
2019-01-27T23:08:07.549Z,104.23
2019-01-27T23:11:24.758Z,104.06
2019-01-27T23:14:41.878Z,104.42
2019-01-27T23:17:58.929Z,104.30
2019-01-27T23:21:15.820Z,104.12
2019-01-27T23:24:35.056Z,103.62
2019-01-27T23:27:40.345Z,103.37
2019-01-27T23:31:06.181Z,103.61
2019-01-27T23:34:23.129Z,102.93
2019-01-27T23:37:39.840Z,102.94
2019-01-27T23:41:01.003Z,102.93
2019-01-27T23:44:18.135Z,102.30
2019-01-27T23:47:35.490Z,101.87
2019-01-27T23:50:52.114Z,100.95
2019-01-27T23:57:54.066Z,101.75
